North Utica, Illinois
Current Conditions -  °F | °C
As of 9:55 AM on Friday 24 Oct 2014 (Local Time) from KVYS Reporting Station
Moderate Fog Moderate Fog  
Wind Chill: 49°   Ceiling: 200
Heat Index: 49°   Visibility: 0mi
Dew Point: 49°   Wind: 0mph
Humidity: 98%   Direction: NA
Pressure: 30.09"   Gusts: NA
Location:  41.3954°N, 88.9927°W
Report Text: KVYS 241455Z AUTO 00000KT M1/4SM FG OVC002 10/09 A3009 RMK AO2 T00950092
Loading
Personal Weather Stations






























Interactive Weather Map
Tropical Storm Tracking
New forecast layout! Learn more

10-Day Weather Forecast

Advertisements
Track Severe Weather on mobile